Albany, Nebraska
Current Conditions -  °F | °C
As of 9:15 AM on Monday 24 Nov 2014 (Local Time) from KHDE Reporting Station
Clear Clear  
Wind Chill: 19°   Ceiling: Unl
Heat Index: 32°   Visibility: 10mi
Dew Point: 20°   Wind: 22mph
Humidity: 62%   Direction: 320°NW
Pressure: 29.8"   Gusts: 31mph
Location:  40.2849°N, 99.6171°W
Report Text: KHDE 241515Z AUTO 32019G27KT 10SM CLR 00/M06 A2980 RMK AO2 T00001065
Loading
Personal Weather Stations






























Interactive Weather Map New forecast layout! Learn more

10-Day Weather Forecast

Advertisements
Track Severe Weather on mobile